Time;durP1;ratioP1;P1;durP2;ratioP2;P2;SDS_P1;SDS_P2;PMS_P1;PMS_P2;Temp;Humidity;BMP_temperature;BMP_pressure;BME280_temperature;BME280_humidity;BME280_pressure;Samples;Min_cycle;Max_cycle;Signal;HPM_P1;HPM_P2
2022/04/22 00:00:46;;;;;;;10.65;7.47;;;;;;;10.56;58.83;98753.66;1083998;54;20045;-79
2022/04/22 00:01:48;;;;;;;12.25;7.70;;;;;;;10.52;59.12;98765.72;1084291;54;20038;-78
2022/04/22 00:02:52;;;;;;;10.57;7.90;;;;;;;10.50;59.26;98751.72;1084441;54;20042;-76
2022/04/22 00:03:56;;;;;;;11.07;8.20;;;;;;;10.52;58.96;98752.38;1084468;54;20034;-79
2022/04/22 00:04:58;;;;;;;10.57;7.88;;;;;;;10.50;59.12;98750.84;1085181;54;20038;-78
2022/04/22 00:06:02;;;;;;;13.00;8.70;;;;;;;10.39;59.77;98752.09;1084853;54;20074;-79
2022/04/22 00:07:04;;;;;;;13.82;8.80;;;;;;;10.36;59.95;98752.41;1084475;54;20076;-78
2022/04/22 00:08:09;;;;;;;12.15;9.15;;;;;;;10.38;59.85;98756.63;1085740;39;20787;-79
2022/04/22 00:09:11;;;;;;;12.70;8.80;;;;;;;10.34;60.14;98744.56;1087860;46;20026;-78
2022/04/22 00:10:16;;;;;;;13.30;9.13;;;;;;;10.29;60.60;98745.09;1087309;54;20038;-79
2022/04/22 00:11:29;;;;;;;12.20;9.48;;;;;;;10.21;60.86;98741.63;1087555;54;20045;-78
2022/04/22 00:12:31;;;;;;;11.55;8.77;;;;;;;10.19;60.76;98743.66;1088335;46;20030;-79
2022/04/22 00:13:37;;;;;;;13.23;9.90;;;;;;;10.19;61.05;98741.81;1087176;54;20038;-79
2022/04/22 00:14:38;;;;;;;13.63;9.75;;;;;;;10.20;60.86;98740.00;1087111;46;20046;-79
2022/04/22 00:15:42;;;;;;;14.57;10.50;;;;;;;10.17;61.19;98741.16;1086905;54;20034;-79
2022/04/22 00:16:44;;;;;;;11.63;9.63;;;;;;;10.13;61.21;98742.53;1087510;54;20062;-79
2022/04/22 00:17:50;;;;;;;11.65;9.63;;;;;;;10.17;61.25;98741.16;1087350;54;20030;-78
2022/04/22 00:18:52;;;;;;;12.90;9.15;;;;;;;10.15;61.32;98749.34;1087350;54;20078;-78
2022/04/22 00:19:58;;;;;;;12.43;9.80;;;;;;;10.17;61.15;98741.16;1090372;46;20017;-79
2022/04/22 00:20:59;;;;;;;14.25;9.63;;;;;;;10.21;61.02;98738.97;1086657;54;20031;-77
2022/04/22 00:22:04;;;;;;;14.23;10.00;;;;;;;10.17;61.11;98745.66;1086852;54;20040;-77
2022/04/22 00:23:05;;;;;;;14.27;9.10;;;;;;;10.17;61.58;98737.66;1087635;54;20035;-80
2022/04/22 00:24:09;;;;;;;13.57;10.27;;;;;;;10.09;61.71;98738.50;1087076;46;20078;-80
2022/04/22 00:25:13;;;;;;;14.02;10.43;;;;;;;10.04;62.04;98741.72;1087763;54;20019;-76
2022/04/22 00:26:19;;;;;;;12.13;9.65;;;;;;;10.09;61.78;98742.03;1087522;54;20041;-76
2022/04/22 00:27:23;;;;;;;12.13;9.65;;;;;;;10.12;61.83;98733.66;1087438;54;20046;-77
2022/04/22 00:28:28;;;;;;;13.30;9.82;;;;;;;10.13;61.58;98740.66;1087408;47;20043;-75
2022/04/22 00:29:30;;;;;;;13.98;10.65;;;;;;;10.09;62.10;98734.03;1088334;46;20053;-76
2022/04/22 00:30:34;;;;;;;14.93;11.05;;;;;;;10.07;62.08;98736.03;1087883;46;20027;-79
2022/04/22 00:31:36;;;;;;;14.98;10.73;;;;;;;10.04;62.24;98736.38;1087742;39;20346;-78
2022/04/22 00:32:40;;;;;;;15.27;10.82;;;;;;;10.04;62.23;98739.03;1087592;54;20027;-77
2022/04/22 00:33:42;;;;;;;15.15;11.95;;;;;;;9.94;62.68;98733.91;1087007;54;20046;-77
2022/04/22 00:34:46;;;;;;;14.57;10.88;;;;;;;9.94;62.70;98731.25;1087008;54;20053;-76
2022/04/22 00:35:47;;;;;;;14.82;10.73;;;;;;;9.92;62.89;98732.44;1087057;54;20030;-76
2022/04/22 00:36:52;;;;;;;13.82;10.45;;;;;;;9.90;63.16;98743.25;1087285;54;20035;-77
2022/04/22 00:37:56;;;;;;;15.23;10.82;;;;;;;9.88;63.34;98737.25;1089335;46;20038;-76
2022/04/22 00:38:57;;;;;;;15.30;11.80;;;;;;;9.84;63.06;98736.78;1088320;46;20033;-77
2022/04/22 00:40:02;;;;;;;13.82;10.75;;;;;;;9.93;62.91;98734.06;1086825;54;20034;-77
2022/04/22 00:41:03;;;;;;;14.82;11.57;;;;;;;9.89;63.44;98740.78;1086738;54;20046;-77
2022/04/22 00:42:11;;;;;;;15.85;11.48;;;;;;;9.83;63.29;98740.44;1086151;54;20106;-77
2022/04/22 00:43:19;;;;;;;15.20;11.68;;;;;;;9.77;63.54;98741.13;1086641;54;20054;-76
2022/04/22 00:44:21;;;;;;;13.98;11.88;;;;;;;9.73;63.76;98739.81;1086084;54;20038;-76
2022/04/22 00:45:25;;;;;;;15.63;12.43;;;;;;;9.73;63.81;98742.47;1087090;54;20334;-77
2022/04/22 00:46:27;;;;;;;16.63;12.57;;;;;;;9.70;64.25;98734.84;1086690;54;20069;-77
2022/04/22 00:47:31;;;;;;;16.95;12.77;;;;;;;9.71;64.18;98747.16;1087384;39;20521;-76
2022/04/22 00:48:32;;;;;;;17.35;12.63;;;;;;;9.83;63.88;98724.44;1086089;54;20046;-77
2022/04/22 00:49:37;;;;;;;14.30;11.55;;;;;;;9.77;63.62;98735.81;1086118;54;20058;-77
2022/04/22 00:50:39;;;;;;;14.00;11.15;;;;;;;9.74;63.88;98728.13;1084940;54;20042;-76
2022/04/22 00:51:44;;;;;;;13.95;11.15;;;;;;;9.75;63.80;98728.97;1083980;54;20085;-75
2022/04/22 00:52:46;;;;;;;15.25;11.52;;;;;;;9.77;63.82;98725.13;1084263;54;20563;-76
2022/04/22 00:53:54;;;;;;;14.48;11.63;;;;;;;9.80;63.65;98727.47;1083889;54;20045;-77
2022/04/22 00:54:58;;;;;;;14.23;10.63;;;;;;;9.81;63.60;98725.59;1084169;54;20147;-76
2022/04/22 00:56:02;;;;;;;13.93;11.63;;;;;;;9.86;63.24;98733.94;1084026;54;20064;-76
2022/04/22 00:57:07;;;;;;;13.77;11.40;;;;;;;9.83;63.46;98728.94;1084086;54;20620;-76
2022/04/22 00:58:09;;;;;;;14.35;10.85;;;;;;;9.73;63.78;98728.31;1084081;54;20046;-76
2022/04/22 00:59:17;;;;;;;14.50;11.65;;;;;;;9.68;64.14;98734.16;1084301;54;20591;-76
2022/04/22 01:00:20;;;;;;;18.73;12.52;;;;;;;9.65;64.07;98730.00;1083540;54;20058;-77
2022/04/22 01:01:24;;;;;;;13.60;10.88;;;;;;;9.67;63.88;98727.16;1083243;54;20047;-76
2022/04/22 01:02:26;;;;;;;13.82;11.27;;;;;;;9.72;64.22;98721.31;1083758;54;20049;-76
2022/04/22 01:03:31;;;;;;;14.48;11.35;;;;;;;9.77;63.68;98730.47;1084165;54;20062;-77
2022/04/22 01:09:53;;;;;;;15.20;12.00;;;;;;;9.67;63.81;98716.47;1084882;39;20496;-77
2022/04/22 01:10:54;;;;;;;13.25;10.10;;;;;;;9.79;63.66;98720.44;1084051;54;20069;-76
2022/04/22 01:11:59;;;;;;;12.65;10.05;;;;;;;9.80;63.40;98718.59;1084119;54;20062;-76
2022/04/22 01:13:03;;;;;;;14.25;10.23;;;;;;;9.83;63.49;98727.09;1084451;39;20446;-77
2022/04/22 01:14:06;;;;;;;13.40;10.85;;;;;;;9.68;63.98;98720.81;1083823;54;20038;-77
2022/04/22 01:15:13;;;;;;;13.18;10.85;;;;;;;9.71;63.88;98717.81;1084036;54;20043;-76
2022/04/22 01:16:16;;;;;;;13.52;11.52;;;;;;;9.71;63.56;98717.81;1084087;54;20047;-77
2022/04/22 01:17:21;;;;;;;15.05;10.85;;;;;;;9.77;63.67;98722.47;1084012;54;20073;-77
2022/04/22 01:18:22;;;;;;;13.40;10.10;;;;;;;9.88;63.27;98725.75;1083997;54;20038;-77
2022/04/22 01:19:27;;;;;;;12.32;9.65;;;;;;;9.94;63.17;98711.72;1084328;47;20046;-76
2022/04/22 01:20:31;;;;;;;13.13;10.50;;;;;;;9.80;63.28;98711.44;1084190;54;20041;-76
2022/04/22 01:21:36;;;;;;;13.80;10.80;;;;;;;9.87;63.38;98713.41;1083823;47;20039;-76
2022/04/22 01:22:40;;;;;;;12.32;9.95;;;;;;;9.90;62.94;98707.75;1084119;54;20034;-77
2022/04/22 01:23:41;;;;;;;12.98;9.88;;;;;;;9.92;62.85;98709.22;1083322;54;20038;-77
2022/04/22 01:24:46;;;;;;;17.15;12.32;;;;;;;9.87;63.17;98706.22;1083755;54;20584;-76
2022/04/22 01:25:48;;;;;;;16.42;11.90;;;;;;;9.80;63.61;98714.13;1083824;54;20038;-77
2022/04/22 01:26:56;;;;;;;12.55;10.00;;;;;;;9.88;63.29;98704.41;1084902;39;20286;-77
2022/04/22 01:28:02;;;;;;;14.60;11.65;;;;;;;9.89;63.28;98700.72;1084235;47;20058;-77
2022/04/22 01:29:05;;;;;;;16.88;10.48;;;;;;;9.92;62.94;98697.72;1083936;54;20045;-77
2022/04/22 01:30:10;;;;;;;14.45;10.68;;;;;;;9.91;63.04;98699.56;1084531;54;20098;-78
2022/04/22 01:31:12;;;;;;;13.70;10.88;;;;;;;9.80;63.53;98700.78;1084509;54;20573;-78
2022/04/22 01:32:16;;;;;;;17.13;12.98;;;;;;;9.74;63.67;98700.63;1084591;47;20042;-78
2022/04/22 01:33:18;;;;;;;13.23;9.82;;;;;;;9.75;63.73;98699.63;1084674;54;20069;-77
2022/04/22 01:34:22;;;;;;;12.55;10.32;;;;;;;9.81;63.49;98699.78;1084900;54;20081;-78
2022/04/22 01:35:27;;;;;;;13.65;11.43;;;;;;;9.77;63.99;98701.09;1084888;54;20581;-77
2022/04/22 01:36:28;;;;;;;14.27;10.90;;;;;;;9.76;63.93;98703.97;1085084;54;20142;-77
2022/04/22 01:37:37;;;;;;;14.57;10.90;;;;;;;9.73;64.07;98702.44;1085132;54;20133;-77
2022/04/22 01:38:38;;;;;;;13.48;11.18;;;;;;;9.66;64.09;98697.00;1084967;54;20058;-78
2022/04/22 01:39:43;;;;;;;14.18;10.80;;;;;;;9.65;64.11;98697.13;1084233;54;20038;-77
2022/04/22 01:40:44;;;;;;;15.85;11.52;;;;;;;9.68;64.15;98699.47;1084138;54;20046;-77
2022/04/22 01:41:49;;;;;;;13.50;10.88;;;;;;;9.69;64.04;98698.47;1084575;54;20057;-77
2022/04/22 01:42:55;;;;;;;14.57;11.13;;;;;;;9.63;64.30;98696.50;1084235;47;20057;-77
2022/04/22 01:43:57;;;;;;;13.77;10.52;;;;;;;9.67;64.13;98692.47;1084710;47;20066;-77
2022/04/22 01:45:01;;;;;;;13.85;10.60;;;;;;;9.69;64.01;98687.78;1084610;54;20068;-78
2022/04/22 01:46:04;;;;;;;13.25;11.05;;;;;;;9.65;64.14;98691.81;1084504;54;20051;-77
2022/04/22 01:47:09;;;;;;;14.68;11.52;;;;;;;9.60;64.33;98691.50;1084365;54;20134;-77
2022/04/22 01:48:11;;;;;;;15.93;11.90;;;;;;;9.50;64.52;98687.19;1084810;39;20536;-78
2022/04/22 01:49:15;;;;;;;15.15;11.68;;;;;;;9.61;64.09;98690.50;1084788;54;20652;-77
2022/04/22 01:50:16;;;;;;;13.02;10.02;;;;;;;9.66;63.91;98693.47;1084529;54;20042;-77
2022/04/22 01:51:21;;;;;;;12.27;10.48;;;;;;;9.67;63.82;98693.31;1084706;54;20034;-78
2022/04/22 01:52:26;;;;;;;12.88;10.65;;;;;;;9.64;64.15;98696.31;1084897;54;20035;-77
2022/04/22 01:53:30;;;;;;;13.75;11.25;;;;;;;9.62;64.10;98692.97;1084508;54;20042;-77
2022/04/22 01:54:34;;;;;;;13.10;10.25;;;;;;;9.65;64.16;98698.00;1084566;54;20034;-78
2022/04/22 01:55:36;;;;;;;12.82;10.45;;;;;;;9.61;64.45;98693.16;1084663;54;20042;-77
2022/04/22 01:56:41;;;;;;;13.82;11.25;;;;;;;9.59;64.29;98695.16;1084243;54;20067;-77
2022/04/22 01:57:42;;;;;;;12.43;10.38;;;;;;;9.67;63.91;98697.81;1084416;39;20094;-77
2022/04/22 01:58:46;;;;;;;12.95;9.63;;;;;;;9.68;64.06;98694.94;1084255;54;20030;-77
2022/04/22 01:59:48;;;;;;;14.13;10.95;;;;;;;9.66;63.92;98696.13;1084421;46;20058;-77
2022/04/22 02:00:52;;;;;;;13.45;10.63;;;;;;;9.67;63.78;98697.81;1084514;54;20034;-77
2022/04/22 02:01:58;;;;;;;13.50;10.10;;;;;;;9.61;64.16;98691.31;1083966;54;20057;-76
2022/04/22 02:03:00;;;;;;;12.80;9.82;;;;;;;9.61;64.17;98703.84;1084168;54;20035;-77
2022/04/22 02:04:04;;;;;;;14.07;11.00;;;;;;;9.63;64.11;98699.97;1084283;54;20034;-77
2022/04/22 02:05:06;;;;;;;14.48;11.82;;;;;;;9.59;64.06;98697.84;1084339;47;20037;-77
2022/04/22 02:06:11;;;;;;;15.23;12.10;;;;;;;9.56;64.36;98699.00;1084178;54;20026;-77
2022/04/22 02:07:12;;;;;;;15.40;12.73;;;;;;;9.56;64.27;98698.16;1084457;54;20572;-77
2022/04/22 02:08:16;;;;;;;15.90;13.10;;;;;;;9.48;64.68;98699.03;1084470;54;20046;-77
2022/04/22 02:09:23;;;;;;;14.68;12.23;;;;;;;9.51;64.49;98686.19;1084466;54;20573;-77
2022/04/22 02:10:25;;;;;;;14.85;11.80;;;;;;;9.47;64.56;98687.53;1084453;54;20049;-77
2022/04/22 02:11:29;;;;;;;14.50;12.05;;;;;;;9.42;64.73;98687.22;1084578;54;20644;-77
2022/04/22 02:12:34;;;;;;;15.52;12.63;;;;;;;9.46;64.69;98680.53;1084417;54;20034;-76
2022/04/22 02:13:36;;;;;;;15.98;14.15;;;;;;;9.41;64.69;98677.53;1083882;54;20049;-77
2022/04/22 02:14:40;;;;;;;17.10;13.40;;;;;;;9.37;65.24;98681.53;1084255;54;20050;-77
2022/04/22 02:15:42;;;;;;;16.42;14.05;;;;;;;9.29;65.38;98679.75;1084473;54;20047;-77
2022/04/22 02:16:46;;;;;;;15.68;13.07;;;;;;;9.26;65.62;98684.59;1084275;54;20045;-77
2022/04/22 02:17:47;;;;;;;18.15;14.45;;;;;;;9.13;65.88;98675.28;1084458;54;20576;-78
2022/04/22 02:18:51;;;;;;;18.45;13.88;;;;;;;9.09;66.17;98673.94;1084481;46;20544;-76
2022/04/22 02:19:56;;;;;;;18.38;14.70;;;;;;;9.09;66.21;98671.25;1085231;54;20061;-78
2022/04/22 02:20:57;;;;;;;17.20;14.70;;;;;;;9.08;66.42;98666.94;1085340;54;20035;-77
2022/04/22 02:22:01;;;;;;;15.27;12.80;;;;;;;9.09;66.02;98673.94;1085197;54;20042;-76
2022/04/22 02:23:03;;;;;;;14.85;12.75;;;;;;;9.06;66.31;98674.28;1084534;54;20030;-77
2022/04/22 02:24:08;;;;;;;17.33;13.73;;;;;;;9.08;66.29;98674.94;1084460;54;20027;-77
2022/04/22 02:25:12;;;;;;;16.45;13.73;;;;;;;9.04;66.44;98666.44;1084464;54;20069;-77
2022/04/22 02:26:17;;;;;;;16.20;12.85;;;;;;;9.13;66.14;98669.09;1084605;54;20063;-77
2022/04/22 02:28:35;;;;;;;15.57;12.98;;;;;;;9.10;66.19;98664.94;1084453;54;20096;-76
2022/04/22 02:29:37;;;;;;;20.70;13.48;;;;;;;9.06;66.48;98666.28;1084463;54;20065;-78
2022/04/22 02:30:41;;;;;;;15.75;13.02;;;;;;;9.05;66.37;98665.44;1084430;54;20034;-77
2022/04/22 02:31:45;;;;;;;17.23;14.20;;;;;;;9.04;66.48;98663.78;1083790;54;20062;-77
2022/04/22 02:32:47;;;;;;;17.08;13.65;;;;;;;8.96;66.91;98665.63;1084141;54;20034;-77
2022/04/22 02:33:51;;;;;;;16.10;13.55;;;;;;;8.93;66.86;98663.28;1084326;54;20058;-77
2022/04/22 02:34:52;;;;;;;17.48;13.45;;;;;;;8.95;66.91;98661.31;1084396;54;20046;-78
2022/04/22 02:35:56;;;;;;;16.75;14.02;;;;;;;8.93;66.73;98663.28;1084440;54;20075;-78
2022/04/22 02:37:01;;;;;;;15.95;12.98;;;;;;;9.00;66.40;98656.28;1084458;54;20042;-77
2022/04/22 02:38:02;;;;;;;15.30;12.80;;;;;;;9.04;66.47;98661.09;1084402;54;20046;-77
2022/04/22 02:39:06;;;;;;;15.25;12.13;;;;;;;9.06;66.23;98658.28;1084461;54;20106;-77
2022/04/22 02:45:26;;;;;;;13.45;11.27;;;;;;;9.09;66.06;98663.25;1085127;39;20452;-77
2022/04/22 02:45:52;;;;;;;16.30;12.60;;;;;;;9.02;66.36;98651.63;1083909;54;20038;-77
2022/04/22 02:46:54;;;;;;;15.57;12.57;;;;;;;9.04;65.97;98653.09;1083716;54;20576;-77
2022/04/22 02:47:58;;;;;;;17.23;12.93;;;;;;;9.03;66.14;98650.63;1083640;54;20069;-77
2022/04/22 02:49:00;;;;;;;15.27;13.32;;;;;;;8.96;66.53;98646.97;1083447;54;20087;-76
2022/04/22 02:50:05;;;;;;;17.17;13.27;;;;;;;8.95;66.40;98645.31;1084196;54;20026;-76
2022/04/22 02:51:06;;;;;;;16.50;14.02;;;;;;;8.94;66.58;98648.97;1083949;54;20026;-76
2022/04/22 02:52:11;;;;;;;16.80;13.57;;;;;;;8.94;66.42;98647.13;1084311;39;20553;-77
2022/04/22 02:53:12;;;;;;;14.73;12.30;;;;;;;8.96;66.30;98646.97;1083997;47;20038;-77
2022/04/22 02:54:16;;;;;;;16.20;12.68;;;;;;;8.94;66.73;98640.97;1083727;54;20054;-77
2022/04/22 02:55:18;;;;;;;16.27;13.77;;;;;;;8.90;66.90;98648.47;1083612;54;20054;-76
2022/04/22 02:56:24;;;;;;;15.23;12.38;;;;;;;8.95;66.62;98642.63;1083733;54;20034;-77
2022/04/22 02:57:28;;;;;;;16.10;13.77;;;;;;;8.97;66.45;98643.31;1083903;54;20110;-78
2022/04/22 02:58:32;;;;;;;15.75;12.20;;;;;;;9.02;66.37;98643.63;1083933;46;20034;-77
2022/04/22 02:59:38;;;;;;;17.98;15.02;;;;;;;8.90;66.69;98638.63;1083710;54;20090;-76
2022/04/22 03:00:40;;;;;;;17.65;14.18;;;;;;;8.88;66.89;98648.63;1084032;54;20034;-77
2022/04/22 03:01:45;;;;;;;17.33;13.63;;;;;;;8.93;66.85;98640.13;1083732;54;20045;-77
2022/04/22 03:02:46;;;;;;;16.63;13.95;;;;;;;8.85;67.06;98643.66;1083014;54;20031;-76
2022/04/22 03:03:51;;;;;;;19.05;15.40;;;;;;;8.79;67.48;98641.63;1083620;54;20547;-76
2022/04/22 03:04:53;;;;;;;18.35;14.98;;;;;;;8.80;67.46;98640.63;1083159;54;20955;-76
2022/04/22 03:05:57;;;;;;;17.08;13.95;;;;;;;8.81;67.20;98639.66;1083391;54;20038;-77
2022/04/22 03:06:59;;;;;;;17.83;14.40;;;;;;;8.85;66.99;98640.13;1083799;54;20066;-77
2022/04/22 03:08:03;;;;;;;16.42;13.60;;;;;;;8.87;67.03;98644.31;1083699;54;20065;-77
2022/04/22 03:09:05;;;;;;;16.77;13.30;;;;;;;8.88;66.81;98639.81;1084059;39;20450;-76
2022/04/22 03:10:10;;;;;;;16.13;12.95;;;;;;;8.87;66.80;98635.47;1083631;54;20070;-76
2022/04/22 03:11:20;;;;;;;16.60;13.13;;;;;;;8.92;66.82;98635.81;1083698;54;20038;-77
2022/04/22 03:12:24;;;;;;;16.70;14.68;;;;;;;8.78;67.28;98639.16;1083691;54;20050;-77
2022/04/22 03:13:28;;;;;;;18.98;15.20;;;;;;;8.73;67.73;98637.00;1083811;54;20664;-77
2022/04/22 03:14:32;;;;;;;17.95;15.20;;;;;;;8.71;67.52;98634.50;1083757;54;20629;-77
2022/04/22 03:15:36;;;;;;;18.88;14.93;;;;;;;8.75;67.51;98637.66;1083768;54;20039;-77
2022/04/22 03:16:40;;;;;;;17.17;13.98;;;;;;;8.80;67.32;98627.31;1083952;54;20038;-77
2022/04/22 03:17:42;;;;;;;14.52;12.10;;;;;;;8.80;67.24;98629.16;1083857;39;20770;-77
2022/04/22 03:18:46;;;;;;;17.48;14.60;;;;;;;8.81;67.38;98633.50;1083479;54;20069;-77
2022/04/22 03:19:48;;;;;;;15.35;12.82;;;;;;;8.79;67.28;98622.97;1084086;39;20439;-77
2022/04/22 03:20:52;;;;;;;17.25;13.52;;;;;;;8.84;67.03;98630.47;1083308;54;20039;-77
2022/04/22 03:21:53;;;;;;;16.55;13.02;;;;;;;8.83;67.05;98627.00;1083340;54;20079;-77
2022/04/22 03:22:58;;;;;;;18.20;14.43;;;;;;;8.78;67.16;98632.00;1084265;54;20062;-77
2022/04/22 03:24:02;;;;;;;14.82;13.05;;;;;;;8.81;67.04;98625.50;1084263;54;20038;-76
2022/04/22 03:25:04;;;;;;;16.02;13.55;;;;;;;8.85;66.97;98619.66;1084018;54;20053;-76
2022/04/22 03:26:09;;;;;;;16.70;13.65;;;;;;;8.86;67.04;98629.34;1084303;46;20065;-77
2022/04/22 03:27:10;;;;;;;14.93;12.57;;;;;;;8.87;66.99;98622.16;1083351;54;20038;-77
2022/04/22 03:28:15;;;;;;;17.85;14.02;;;;;;;8.88;66.79;98623.81;1084088;54;20035;-76
2022/04/22 03:29:19;;;;;;;18.92;14.50;;;;;;;8.79;67.20;98625.66;1084884;39;20437;-76
2022/04/22 03:30:24;;;;;;;19.25;15.75;;;;;;;8.75;67.45;98629.66;1084135;54;20039;-76
2022/04/22 03:31:25;;;;;;;17.60;15.30;;;;;;;8.71;67.62;98625.66;1083995;54;20042;-77
2022/04/22 03:32:29;;;;;;;19.15;14.90;;;;;;;8.71;67.43;98623.00;1084138;54;20168;-77
2022/04/22 03:33:31;;;;;;;18.60;15.43;;;;;;;8.69;67.70;98627.69;1083623;54;20038;-77
2022/04/22 03:34:35;;;;;;;19.02;15.45;;;;;;;8.69;67.36;98620.50;1083826;39;20731;-77
2022/04/22 03:35:39;;;;;;;19.50;14.77;;;;;;;8.67;67.39;98627.81;1083577;54;20054;-76
2022/04/22 03:36:43;;;;;;;19.65;14.70;;;;;;;8.71;67.27;98629.19;1083584;54;20065;-77
2022/04/22 03:37:45;;;;;;;21.35;16.45;;;;;;;8.60;67.99;98631.34;1083468;54;20063;-77
2022/04/22 03:38:49;;;;;;;22.63;17.48;;;;;;;8.56;68.15;98628.16;1083725;54;20042;-77
2022/04/22 03:39:51;;;;;;;20.10;16.80;;;;;;;8.53;67.95;98618.69;1083515;54;20038;-77
2022/04/22 03:40:55;;;;;;;20.95;16.10;;;;;;;8.53;68.02;98621.34;1083408;54;20038;-77
2022/04/22 03:41:58;;;;;;;18.58;15.45;;;;;;;8.60;67.84;98623.34;1083765;54;20082;-77
2022/04/22 03:43:03;;;;;;;18.13;14.77;;;;;;;8.61;67.86;98620.50;1084605;54;20053;-77
2022/04/22 03:44:05;;;;;;;18.02;15.10;;;;;;;8.63;67.57;98621.19;1084203;54;20069;-76
2022/04/22 03:45:12;;;;;;;19.88;15.15;;;;;;;8.56;67.86;98615.69;1084256;46;20046;-77
2022/04/22 03:46:14;;;;;;;20.23;16.83;;;;;;;8.50;68.04;98618.19;1084150;54;20042;-76
2022/04/22 03:47:18;;;;;;;20.48;17.05;;;;;;;8.53;68.22;98620.53;1084365;54;20720;-76
2022/04/22 03:48:20;;;;;;;20.02;15.88;;;;;;;8.55;68.14;98619.34;1084611;46;20026;-76
2022/04/22 03:49:24;;;;;;;19.55;16.02;;;;;;;8.53;67.91;98618.69;1084111;54;20030;-77
2022/04/22 03:50:26;;;;;;;19.33;16.20;;;;;;;8.50;68.00;98616.34;1084162;54;20057;-77
2022/04/22 03:51:30;;;;;;;18.52;15.27;;;;;;;8.52;67.81;98613.53;1084748;46;20034;-77
2022/04/22 03:52:32;;;;;;;20.58;17.45;;;;;;;8.45;68.56;98615.97;1084215;54;20061;-76
2022/04/22 03:53:39;;;;;;;20.45;16.88;;;;;;;8.39;68.58;98619.31;1084021;54;20045;-78
2022/04/22 03:54:40;;;;;;;24.58;18.40;;;;;;;8.35;68.79;98608.16;1084085;54;20042;-78
2022/04/22 03:55:46;;;;;;;21.15;16.10;;;;;;;8.40;68.56;98605.84;1083952;54;20050;-77
2022/04/22 03:58:13;;;;;;;18.25;15.27;;;;;;;8.47;68.37;98610.47;1084125;54;20081;-76
2022/04/22 03:59:15;;;;;;;17.90;15.20;;;;;;;8.38;68.24;98605.16;1084244;54;20065;-79
2022/04/22 04:00:21;;;;;;;19.95;16.17;;;;;;;8.47;68.33;98611.38;1083884;54;20041;-77
2022/04/22 04:01:23;;;;;;;18.73;13.90;;;;;;;8.50;67.97;98608.34;1083647;54;20074;-76
2022/04/22 04:02:28;;;;;;;18.13;14.35;;;;;;;8.47;68.18;98606.03;1084444;54;20034;-78
2022/04/22 04:03:30;;;;;;;21.02;16.02;;;;;;;8.48;68.00;98605.03;1083977;54;20029;-77
2022/04/22 04:04:34;;;;;;;18.90;15.70;;;;;;;8.36;68.80;98606.31;1084281;54;20062;-77
2022/04/22 04:05:36;;;;;;;21.73;16.90;;;;;;;8.36;68.74;98601.81;1084587;54;20034;-78
2022/04/22 04:06:40;;;;;;;22.05;17.58;;;;;;;8.28;69.06;98597.34;1084638;54;20065;-76
2022/04/22 04:07:42;;;;;;;21.15;17.52;;;;;;;8.39;68.63;98606.81;1084379;54;20030;-77
2022/04/22 04:15:57;;;;;;;19.58;16.08;;;;;;;8.39;68.39;98598.84;1084450;54;20036;-77
2022/04/22 04:16:37;;;;;;;19.05;15.20;;;;;;;8.28;68.95;98605.34;1083980;54;20038;-77
2022/04/22 04:17:38;;;;;;;24.92;19.27;;;;;;;8.18;69.41;98607.31;1083848;54;20054;-76
2022/04/22 04:18:44;;;;;;;20.58;16.60;;;;;;;8.25;69.12;98600.31;1084259;47;20548;-77
2022/04/22 04:23:47;;;;;;;20.15;16.10;;;;;;;8.24;68.74;98598.66;1083030;54;20034;-77
2022/04/22 04:24:48;;;;;;;20.42;17.02;;;;;;;8.16;69.25;98603.97;1083087;47;20049;-77
2022/04/22 04:25:52;;;;;;;21.08;16.67;;;;;;;8.20;69.01;98597.34;1083297;54;20042;-76
2022/04/22 04:26:54;;;;;;;18.70;15.73;;;;;;;8.22;69.24;98598.00;1083923;46;20050;-76
2022/04/22 04:27:59;;;;;;;20.80;16.83;;;;;;;8.20;69.16;98608.00;1084042;54;20045;-77
2022/04/22 04:29:04;;;;;;;18.80;15.20;;;;;;;8.24;69.20;98601.31;1083651;54;20074;-76
2022/04/22 04:30:07;;;;;;;23.27;17.67;;;;;;;8.25;69.09;98603.00;1084029;39;20384;-76
2022/04/22 04:31:15;;;;;;;21.88;15.38;;;;;;;8.27;68.98;98609.00;1083943;54;20027;-77
2022/04/22 04:32:17;;;;;;;19.35;15.27;;;;;;;8.28;69.00;98601.81;1083964;47;20060;-77
2022/04/22 04:33:21;;;;;;;17.75;14.85;;;;;;;8.36;68.72;98609.81;1083360;47;20068;-77
2022/04/22 04:34:22;;;;;;;17.75;14.50;;;;;;;8.40;68.75;98605.00;1083629;54;20059;-77
2022/04/22 04:35:27;;;;;;;19.00;14.40;;;;;;;8.44;68.32;98603.66;1083663;54;20050;-78
2022/04/22 04:36:31;;;;;;;17.75;14.07;;;;;;;8.45;68.56;98601.84;1083600;47;20045;-77
2022/04/22 04:37:39;;;;;;;22.67;17.15;;;;;;;8.37;68.83;98597.34;1083603;54;20042;-77
2022/04/22 04:38:44;;;;;;;22.30;16.33;;;;;;;8.39;68.62;98598.84;1083365;54;20063;-77
2022/04/22 04:39:46;;;;;;;19.77;16.80;;;;;;;8.36;68.42;98598.34;1083650;54;20042;-76
2022/04/22 04:40:51;;;;;;;23.05;17.65;;;;;;;8.24;68.97;98593.34;1084395;39;20736;-76
2022/04/22 04:41:54;;;;;;;22.05;18.00;;;;;;;8.26;68.83;98594.00;1083718;54;20064;-77
2022/04/22 04:43:00;;;;;;;22.10;17.42;;;;;;;8.28;68.81;98592.03;1084386;39;20535;-77
2022/04/22 04:44:04;;;;;;;20.08;16.60;;;;;;;8.31;68.74;98584.72;1083900;54;20031;-77
2022/04/22 04:45:08;;;;;;;22.33;17.40;;;;;;;8.31;68.68;98592.69;1083879;54;20812;-77
2022/04/22 04:46:15;;;;;;;24.27;17.67;;;;;;;8.30;68.76;98591.03;1084486;54;20057;-77
2022/04/22 04:47:17;;;;;;;25.02;18.85;;;;;;;8.21;69.06;98587.50;1084463;54;20046;-77
2022/04/22 04:48:21;;;;;;;24.90;17.98;;;;;;;8.16;69.49;98589.84;1084740;54;20513;-77
2022/04/22 04:49:23;;;;;;;24.42;19.02;;;;;;;8.15;69.69;98598.81;1085148;54;20065;-77
2022/04/22 04:50:27;;;;;;;22.95;17.77;;;;;;;8.16;69.56;98593.34;1084355;54;20775;-78
2022/04/22 04:51:31;;;;;;;22.33;16.92;;;;;;;8.23;69.44;98597.00;1084560;54;20058;-77
2022/04/22 04:52:34;;;;;;;22.00;17.20;;;;;;;8.26;69.04;98594.00;1084842;54;20603;-76
2022/04/22 04:53:39;;;;;;;18.90;16.20;;;;;;;8.33;68.85;98598.66;1085035;47;20042;-77
2022/04/22 04:54:54;;;;;;;20.45;16.42;;;;;;;8.28;69.14;98610.66;1085685;39;20521;-77
2022/04/22 04:55:58;;;;;;;24.13;18.42;;;;;;;8.08;69.97;98606.63;1088899;47;20050;-77
2022/04/22 04:57:00;;;;;;;22.70;17.45;;;;;;;8.23;69.39;98617.47;1087956;47;20034;-78
2022/04/22 04:58:05;;;;;;;22.02;18.85;;;;;;;8.20;69.41;98626.63;1086661;47;20038;-77
2022/04/22 04:59:06;;;;;;;22.80;18.20;;;;;;;8.28;69.26;98629.28;1085923;54;20046;-77
2022/04/22 05:00:12;;;;;;;24.27;18.70;;;;;;;8.35;69.19;98634.81;1086329;54;20026;-77
2022/04/22 05:01:19;;;;;;;21.52;18.20;;;;;;;8.33;68.92;98636.78;1086509;54;20051;-77
2022/04/22 05:02:21;;;;;;;25.33;19.77;;;;;;;8.26;69.23;98638.44;1087107;47;20027;-78
2022/04/22 05:03:26;;;;;;;24.88;18.80;;;;;;;8.23;69.24;98636.94;1087186;47;20026;-77
2022/04/22 05:04:27;;;;;;;23.10;17.42;;;;;;;8.28;69.37;98629.28;1086955;47;20030;-77
2022/04/22 05:05:32;;;;;;;21.67;18.10;;;;;;;8.32;69.22;98634.28;1086714;54;20119;-76
2022/04/22 05:06:35;;;;;;;24.35;18.80;;;;;;;8.27;69.11;98632.09;1085287;54;20042;-77
2022/04/22 05:07:49;;;;;;;26.67;20.20;;;;;;;8.26;69.25;98639.28;1086947;47;20015;-78
2022/04/22 05:08:51;;;;;;;26.83;18.67;;;;;;;8.27;69.21;98640.94;1086748;47;20576;-77
2022/04/22 05:09:55;;;;;;;25.02;19.38;;;;;;;8.20;69.63;98637.28;1086295;54;20027;-77
2022/04/22 05:10:59;;;;;;;22.55;18.67;;;;;;;8.21;69.59;98640.75;1085902;54;20046;-77
2022/04/22 05:12:01;;;;;;;23.05;18.30;;;;;;;8.27;69.43;98642.75;1085046;54;20031;-78
2022/04/22 05:13:06;;;;;;;21.65;18.63;;;;;;;8.21;69.56;98638.94;1085175;54;20050;-77
2022/04/22 05:14:08;;;;;;;24.63;19.33;;;;;;;8.15;69.83;98642.25;1084949;54;20066;-77
2022/04/22 05:15:13;;;;;;;23.77;18.33;;;;;;;8.23;69.63;98636.94;1084983;54;20050;-77
2022/04/22 05:16:20;;;;;;;23.52;18.95;;;;;;;8.24;69.38;98638.59;1084599;54;20046;-77
2022/04/22 05:17:22;;;;;;;23.95;19.00;;;;;;;8.28;69.39;98639.09;1084642;54;20061;-77
2022/04/22 05:18:26;;;;;;;24.90;19.50;;;;;;;8.33;69.05;98643.94;1084725;54;20058;-77
2022/04/22 05:19:28;;;;;;;22.30;18.52;;;;;;;8.33;69.08;98647.44;1084390;54;20038;-77